createdAt,value
2022-12-23T00:00:19.451Z,9.70
2022-12-23T00:02:36.497Z,9.15
2022-12-23T00:04:53.721Z,8.43
2022-12-23T00:07:11.066Z,8.30
2022-12-23T00:33:20.343Z,6.88
2022-12-23T00:35:37.325Z,11.10
2022-12-23T00:37:54.752Z,11.73
2022-12-23T00:40:14.252Z,17.88
2022-12-23T00:42:31.332Z,13.10
2022-12-23T00:44:48.726Z,11.75
2022-12-23T00:47:05.821Z,10.93
2022-12-23T00:49:22.946Z,10.70
2022-12-23T00:51:40.347Z,14.13
2022-12-23T00:53:57.354Z,13.27
2022-12-23T00:56:14.322Z,14.27
2022-12-23T00:58:31.630Z,10.43
2022-12-23T01:00:48.702Z,11.82
2022-12-23T01:03:05.800Z,10.85
2022-12-23T01:05:23.223Z,10.18
2022-12-23T01:07:40.249Z,13.80
2022-12-23T01:09:57.551Z,11.68
2022-12-23T01:12:14.476Z,14.48
2022-12-23T01:14:31.646Z,12.38
2022-12-23T01:16:48.779Z,11.13
2022-12-23T01:19:05.823Z,12.10
2022-12-23T01:21:22.776Z,12.50
2022-12-23T01:23:40.103Z,8.98
2022-12-23T01:25:57.138Z,12.02
2022-12-23T01:28:14.127Z,9.60
2022-12-23T01:30:31.160Z,12.35
2022-12-23T01:32:48.542Z,9.75
2022-12-23T01:35:06.777Z,7.47
2022-12-23T01:37:23.848Z,8.63
2022-12-23T01:39:40.857Z,5.68
2022-12-23T01:41:57.920Z,9.43
2022-12-23T01:44:14.958Z,5.45
2022-12-23T01:46:31.955Z,9.68
2022-12-23T01:48:49.070Z,4.93
2022-12-23T01:51:07.484Z,5.80
2022-12-23T01:53:24.498Z,4.90
2022-12-23T01:55:41.834Z,6.05
2022-12-23T01:57:59.040Z,4.70
2022-12-23T02:00:16.081Z,4.88
2022-12-23T02:02:33.384Z,4.40
2022-12-23T02:04:50.359Z,5.95
2022-12-23T02:07:07.401Z,6.15
2022-12-23T02:09:24.433Z,6.85
2022-12-23T02:11:41.743Z,4.20
2022-12-23T02:13:58.822Z,2.33
2022-12-23T02:16:15.885Z,5.05
2022-12-23T02:18:32.910Z,3.65
2022-12-23T02:20:50.221Z,2.60
2022-12-23T02:23:07.171Z,3.50
2022-12-23T02:25:24.091Z,4.45
2022-12-23T02:27:41.087Z,2.60
2022-12-23T02:29:58.154Z,2.67
2022-12-23T02:32:16.189Z,3.60
2022-12-23T02:34:33.206Z,2.53
2022-12-23T02:36:50.148Z,5.45
2022-12-23T02:39:07.998Z,6.45
2022-12-23T02:41:25.343Z,3.40
2022-12-23T02:43:42.382Z,4.68
2022-12-23T02:45:59.461Z,3.50
2022-12-23T02:48:16.510Z,4.57
2022-12-23T02:50:33.542Z,5.25
2022-12-23T02:52:50.721Z,2.55
2022-12-23T02:55:07.562Z,4.18
2022-12-23T02:57:24.550Z,2.15
2022-12-23T02:59:41.589Z,3.88
2022-12-23T03:01:58.720Z,1.77
2022-12-23T03:04:15.770Z,2.90
2022-12-23T03:06:32.767Z,1.33
2022-12-23T03:08:49.701Z,4.32
2022-12-23T03:11:06.669Z,1.35
2022-12-23T03:13:23.704Z,2.05
2022-12-23T03:15:40.829Z,4.40
2022-12-23T03:17:57.784Z,4.38
2022-12-23T03:20:14.819Z,1.08
2022-12-23T03:22:31.710Z,1.95
2022-12-23T03:24:48.624Z,2.75
2022-12-23T03:27:05.553Z,2.30
2022-12-23T03:29:22.624Z,2.33
2022-12-23T03:31:39.531Z,1.42
2022-12-23T03:33:56.809Z,1.58
2022-12-23T03:36:13.747Z,3.72
2022-12-23T03:38:30.678Z,5.65
2022-12-23T03:40:47.920Z,3.85
2022-12-23T03:43:04.888Z,1.85
2022-12-23T03:45:38.819Z,0.90
2022-12-23T03:47:58.238Z,2.90
2022-12-23T03:50:15.485Z,1.90
2022-12-23T03:52:32.728Z,2.35
2022-12-23T03:54:49.670Z,4.43
2022-12-23T03:57:06.606Z,3.95
2022-12-23T03:59:23.625Z,0.80
2022-12-23T04:01:40.974Z,2.35
2022-12-23T04:03:58.163Z,2.63
2022-12-23T04:06:15.195Z,2.80
2022-12-23T04:08:32.464Z,2.40
2022-12-23T04:10:49.560Z,2.25
2022-12-23T04:13:07.806Z,3.35
2022-12-23T04:15:25.723Z,2.60
2022-12-23T04:17:42.697Z,4.03
2022-12-23T04:19:59.583Z,2.72
2022-12-23T04:22:16.851Z,4.13
2022-12-23T04:24:33.883Z,7.43
2022-12-23T04:26:50.961Z,1.42
2022-12-23T04:29:08.009Z,3.08
2022-12-23T04:31:25.099Z,4.82
2022-12-23T04:33:42.156Z,3.72
2022-12-23T04:36:00.118Z,3.28
2022-12-23T04:38:17.122Z,2.67
2022-12-23T04:40:34.485Z,6.25
2022-12-23T04:42:51.308Z,1.40
2022-12-23T04:45:08.350Z,10.52
2022-12-23T04:47:25.348Z,3.03
2022-12-23T04:49:42.404Z,2.70
2022-12-23T04:51:59.375Z,2.22
2022-12-23T04:54:16.680Z,2.15
2022-12-23T04:56:33.887Z,2.03
2022-12-23T04:58:51.233Z,2.97
2022-12-23T05:01:08.077Z,1.60
2022-12-23T05:03:25.210Z,4.55
2022-12-23T05:05:42.237Z,4.88
2022-12-23T05:07:59.274Z,2.88
2022-12-23T05:10:16.309Z,2.97
2022-12-23T05:12:33.277Z,2.55
2022-12-23T05:14:50.282Z,3.25
2022-12-23T05:17:08.085Z,4.35
2022-12-23T05:19:25.061Z,3.50
2022-12-23T05:21:42.082Z,2.13
2022-12-23T05:23:59.413Z,2.38
2022-12-23T05:26:16.301Z,2.10
2022-12-23T05:28:33.222Z,6.07
2022-12-23T05:30:50.126Z,4.72
2022-12-23T05:33:07.070Z,1.42
2022-12-23T05:35:24.092Z,1.27
2022-12-23T05:37:41.137Z,4.55
2022-12-23T05:39:58.193Z,3.72
2022-12-23T05:42:16.219Z,1.70
2022-12-23T05:44:33.237Z,4.20
2022-12-23T05:46:50.265Z,3.25
2022-12-23T05:49:07.210Z,3.88
2022-12-23T05:51:24.245Z,2.45
2022-12-23T05:53:41.545Z,3.08
2022-12-23T05:55:58.542Z,3.58
2022-12-23T05:58:15.581Z,3.30
2022-12-23T06:00:32.634Z,6.97
2022-12-23T06:02:53.986Z,5.30
2022-12-23T06:05:12.553Z,3.25
2022-12-23T06:07:29.610Z,3.67
2022-12-23T06:09:46.666Z,4.65
2022-12-23T06:12:03.598Z,2.75
2022-12-23T06:14:26.874Z,3.90
2022-12-23T06:16:45.804Z,1.55
2022-12-23T06:19:03.136Z,2.70
2022-12-23T06:21:20.194Z,4.50
2022-12-23T06:23:37.460Z,6.28
2022-12-23T06:25:54.493Z,4.75
2022-12-23T06:28:11.742Z,8.15
2022-12-23T06:30:29.368Z,11.05
2022-12-23T06:32:46.394Z,8.98
2022-12-23T06:35:03.299Z,7.22
2022-12-23T06:37:20.330Z,7.35
2022-12-23T06:39:37.627Z,5.50
2022-12-23T06:41:54.625Z,9.60
2022-12-23T06:44:11.661Z,7.53
2022-12-23T06:46:28.991Z,11.38
2022-12-23T06:48:45.972Z,9.45
2022-12-23T06:51:03.992Z,8.95
2022-12-23T06:53:21.053Z,14.20
2022-12-23T06:55:37.980Z,16.65
2022-12-23T06:57:55.070Z,27.05
2022-12-23T07:00:12.307Z,12.45
2022-12-23T07:02:29.712Z,11.02
2022-12-23T07:04:46.974Z,33.08
2022-12-23T07:07:04.327Z,31.10
2022-12-23T07:09:21.658Z,56.53
2022-12-23T07:11:38.659Z,52.75
2022-12-23T07:13:55.740Z,49.22
2022-12-23T07:16:12.920Z,48.00
2022-12-23T07:18:29.899Z,39.78
2022-12-23T07:20:46.906Z,28.27
2022-12-23T07:23:03.830Z,22.52
2022-12-23T07:25:20.819Z,22.02
2022-12-23T07:27:38.839Z,18.90
2022-12-23T07:29:55.873Z,14.32
2022-12-23T07:32:13.858Z,10.48
2022-12-23T07:34:30.773Z,10.35
2022-12-23T07:36:47.834Z,5.20
2022-12-23T07:39:04.958Z,8.05
2022-12-23T07:41:21.875Z,10.95
2022-12-23T07:43:39.183Z,7.07
2022-12-23T07:46:00.418Z,8.05
2022-12-23T07:48:17.956Z,14.75
2022-12-23T07:50:34.984Z,5.72
2022-12-23T07:52:52.244Z,11.63
2022-12-23T07:55:09.197Z,8.50
2022-12-23T07:57:26.390Z,11.15
2022-12-23T07:59:43.300Z,17.05
2022-12-23T08:02:00.861Z,18.27
2022-12-23T08:04:18.057Z,17.23
2022-12-23T08:06:35.320Z,18.42
2022-12-23T08:08:52.194Z,16.27
2022-12-23T08:11:09.516Z,18.50
2022-12-23T08:13:26.487Z,16.50
2022-12-23T08:15:43.476Z,10.10
2022-12-23T08:18:00.342Z,13.48
2022-12-23T08:20:17.539Z,13.70
2022-12-23T08:22:34.560Z,15.60
2022-12-23T08:24:51.835Z,9.65
2022-12-23T08:27:09.097Z,10.00
2022-12-23T08:29:29.874Z,8.90
2022-12-23T08:31:49.573Z,10.25
2022-12-23T08:34:06.532Z,14.25
2022-12-23T08:36:23.931Z,11.90
2022-12-23T08:38:41.041Z,12.80
2022-12-23T08:40:58.785Z,14.80
2022-12-23T08:43:16.718Z,13.20
2022-12-23T08:45:33.801Z,9.93
2022-12-23T08:47:50.852Z,11.40
2022-12-23T08:50:08.183Z,10.82
2022-12-23T08:52:25.063Z,12.02
2022-12-23T08:54:42.299Z,11.18
2022-12-23T08:56:59.252Z,12.55
2022-12-23T08:59:19.067Z,8.88
2022-12-23T09:01:37.200Z,11.57
2022-12-23T09:03:54.673Z,8.57
2022-12-23T09:06:12.075Z,11.95
2022-12-23T09:08:29.060Z,14.70
2022-12-23T09:10:46.295Z,16.50
2022-12-23T09:13:03.255Z,20.40
2022-12-23T09:15:20.341Z,18.95
2022-12-23T09:17:37.655Z,13.52
2022-12-23T09:19:54.594Z,23.65
2022-12-23T09:22:11.535Z,14.95
2022-12-23T09:24:28.496Z,14.85
2022-12-23T09:26:45.455Z,16.60
2022-12-23T09:29:02.477Z,13.40
2022-12-23T09:31:19.607Z,14.57
2022-12-23T09:33:36.828Z,15.75
2022-12-23T09:35:54.037Z,14.98
2022-12-23T09:38:12.232Z,14.25
2022-12-23T09:40:29.247Z,15.43
2022-12-23T09:42:46.577Z,14.63
2022-12-23T09:45:03.629Z,38.55
2022-12-23T09:47:20.737Z,29.88
2022-12-23T09:49:37.613Z,45.05
2022-12-23T09:51:55.005Z,35.67
2022-12-23T09:54:16.556Z,27.20
2022-12-23T09:56:33.883Z,39.85
2022-12-23T09:58:50.802Z,59.05
2022-12-23T10:01:08.152Z,54.65
2022-12-23T10:03:25.298Z,62.38
2022-12-23T10:05:43.578Z,71.43
2022-12-23T10:08:00.682Z,65.28
2022-12-23T10:10:17.803Z,63.58
2022-12-23T10:12:39.717Z,61.75
2022-12-23T10:14:57.478Z,66.45
2022-12-23T10:17:14.382Z,64.40
2022-12-23T10:19:31.615Z,56.17
2022-12-23T10:21:48.654Z,47.67
2022-12-23T10:24:05.580Z,37.35
2022-12-23T10:26:22.500Z,23.10
2022-12-23T10:28:39.498Z,17.45
2022-12-23T10:31:30.517Z,14.88
2022-12-23T10:33:33.481Z,14.15
2022-12-23T10:35:50.376Z,12.43
2022-12-23T10:38:07.350Z,13.48
2022-12-23T10:40:24.554Z,10.50
2022-12-23T10:42:41.595Z,11.75
2022-12-23T10:44:58.521Z,10.43
2022-12-23T10:47:15.971Z,10.25
2022-12-23T10:49:34.215Z,7.85
2022-12-23T10:51:51.248Z,9.82
2022-12-23T10:54:10.281Z,9.02
2022-12-23T10:56:27.530Z,11.35
2022-12-23T10:58:44.795Z,8.95
2022-12-23T11:01:02.613Z,29.45
2022-12-23T11:03:22.032Z,28.58
2022-12-23T11:05:39.401Z,25.60
2022-12-23T11:07:56.676Z,22.88
2022-12-23T11:10:14.725Z,14.25
2022-12-23T11:12:33.195Z,14.65
2022-12-23T11:14:52.886Z,13.98
2022-12-23T11:17:09.915Z,10.65
2022-12-23T11:19:26.872Z,12.25
2022-12-23T11:21:44.217Z,11.98
2022-12-23T11:24:01.458Z,16.23
2022-12-23T11:26:19.345Z,12.05
2022-12-23T11:28:37.555Z,11.77
2022-12-23T11:30:56.646Z,14.13
2022-12-23T11:33:15.169Z,10.43
2022-12-23T11:35:32.505Z,9.38
2022-12-23T11:37:49.678Z,10.88
2022-12-23T11:40:06.654Z,9.98
2022-12-23T11:42:23.913Z,10.60
2022-12-23T11:44:41.319Z,8.20
2022-12-23T11:46:58.376Z,10.68
2022-12-23T11:49:15.422Z,11.02
2022-12-23T11:51:32.640Z,9.57
2022-12-23T11:53:49.874Z,8.35
2022-12-23T11:56:07.159Z,7.00
2022-12-23T11:58:24.251Z,6.88
2022-12-23T12:00:41.186Z,8.38
2022-12-23T12:02:58.740Z,9.57
2022-12-23T12:05:15.806Z,8.88
2022-12-23T12:07:33.157Z,9.13
2022-12-23T12:09:50.480Z,8.32
2022-12-23T12:12:07.442Z,7.95
2022-12-23T12:14:24.428Z,7.20
2022-12-23T12:16:41.439Z,9.48
2022-12-23T12:18:58.777Z,9.40
2022-12-23T12:21:15.830Z,6.82
2022-12-23T12:23:32.810Z,8.15
2022-12-23T12:25:49.755Z,11.32
2022-12-23T12:28:07.036Z,8.80
2022-12-23T12:30:24.075Z,10.63
2022-12-23T12:32:41.458Z,8.60
2022-12-23T12:34:58.797Z,11.52
2022-12-23T12:37:16.159Z,12.43
2022-12-23T12:39:35.599Z,16.25
2022-12-23T12:41:52.617Z,13.90
2022-12-23T12:44:09.524Z,13.50
2022-12-23T12:46:26.547Z,15.45
2022-12-23T12:48:44.640Z,15.38
2022-12-23T12:51:01.627Z,13.05
2022-12-23T12:53:18.885Z,16.65
2022-12-23T12:55:35.833Z,15.23
2022-12-23T12:57:53.938Z,14.93
2022-12-23T13:00:10.816Z,12.43
2022-12-23T13:02:27.804Z,11.82
2022-12-23T13:04:45.045Z,12.88
2022-12-23T13:07:02.123Z,13.85
2022-12-23T13:09:19.064Z,10.43
2022-12-23T13:11:36.390Z,13.38
2022-12-23T13:13:53.693Z,12.10
2022-12-23T13:16:10.599Z,12.13
2022-12-23T13:18:27.477Z,13.27
2022-12-23T13:20:44.816Z,11.13
2022-12-23T13:23:20.822Z,10.13
2022-12-23T13:25:38.988Z,10.02
2022-12-23T13:27:56.253Z,9.25
2022-12-23T13:30:13.524Z,10.88
2022-12-23T13:32:30.558Z,11.23
2022-12-23T13:34:47.559Z,8.05
2022-12-23T13:37:05.146Z,10.88
2022-12-23T13:39:22.413Z,11.50
2022-12-23T13:41:39.362Z,13.35
2022-12-23T13:43:56.295Z,18.15
2022-12-23T13:46:14.728Z,13.63
2022-12-23T13:48:31.960Z,15.02
2022-12-23T13:50:48.856Z,14.02
2022-12-23T13:53:05.865Z,18.20
2022-12-23T13:55:22.765Z,12.88
2022-12-23T13:57:39.871Z,12.77
2022-12-23T14:00:01.214Z,11.20
2022-12-23T14:02:22.425Z,11.07
2022-12-23T14:04:39.456Z,10.20
2022-12-23T14:06:56.314Z,13.23
2022-12-23T14:09:13.626Z,10.10
2022-12-23T14:11:30.580Z,11.45
2022-12-23T14:13:47.621Z,11.95
2022-12-23T14:16:04.931Z,13.32
2022-12-23T14:18:22.254Z,13.10
2022-12-23T14:20:40.282Z,11.15
2022-12-23T14:22:57.225Z,13.73
2022-12-23T14:25:14.315Z,13.30
2022-12-23T14:27:31.251Z,16.05
2022-12-23T14:29:48.531Z,14.98
2022-12-23T14:32:05.467Z,17.20
2022-12-23T14:34:22.461Z,17.55
2022-12-23T14:36:39.434Z,12.43
2022-12-23T14:38:56.575Z,16.75
2022-12-23T14:41:13.802Z,14.70
2022-12-23T14:43:30.854Z,16.58
2022-12-23T14:45:48.885Z,13.80
2022-12-23T14:48:05.912Z,15.05
2022-12-23T14:50:22.844Z,14.73
2022-12-23T14:52:44.777Z,19.50
2022-12-23T14:55:28.963Z,23.23
2022-12-23T14:57:39.307Z,22.23
2022-12-23T14:59:56.345Z,21.08
2022-12-23T15:02:13.715Z,22.63
2022-12-23T15:04:30.774Z,18.27
2022-12-23T15:06:47.728Z,17.25
2022-12-23T15:09:05.181Z,21.42
2022-12-23T15:11:22.212Z,16.42
2022-12-23T15:13:41.436Z,14.45
2022-12-23T15:16:01.782Z,14.80
2022-12-23T15:18:19.092Z,13.02
2022-12-23T15:20:36.124Z,12.45
2022-12-23T15:22:53.165Z,10.43
2022-12-23T15:25:10.093Z,10.65
2022-12-23T15:27:29.820Z,9.80
2022-12-23T15:29:47.401Z,9.38
2022-12-23T15:32:04.512Z,10.85
2022-12-23T15:34:21.799Z,11.20
2022-12-23T15:36:39.185Z,9.63
2022-12-23T15:38:56.203Z,7.72
2022-12-23T15:41:13.226Z,6.13
2022-12-23T15:43:31.182Z,8.38
2022-12-23T15:45:48.211Z,1.38
2022-12-23T15:48:05.054Z,1.08
2022-12-23T15:50:22.025Z,2.55
2022-12-23T15:52:39.019Z,2.75
2022-12-23T15:54:55.959Z,1.90
2022-12-23T15:57:12.836Z,2.40
2022-12-23T15:59:29.749Z,2.80
2022-12-23T16:01:46.803Z,1.85
2022-12-23T16:04:03.964Z,2.00
2022-12-23T16:06:21.455Z,3.13
2022-12-23T16:08:38.434Z,2.13
2022-12-23T16:10:55.965Z,1.38
2022-12-23T16:13:13.176Z,0.98
2022-12-23T16:15:30.185Z,1.00
2022-12-23T16:17:47.134Z,1.73
2022-12-23T16:20:04.148Z,1.70
2022-12-23T16:22:21.110Z,3.70
2022-12-23T16:24:38.134Z,1.30
2022-12-23T16:26:55.475Z,1.58
2022-12-23T16:29:12.430Z,1.15
2022-12-23T16:31:29.524Z,1.92
2022-12-23T16:33:46.547Z,2.65
2022-12-23T16:36:03.925Z,1.52
2022-12-23T16:38:20.970Z,1.23
2022-12-23T16:40:38.251Z,0.70
2022-12-23T16:42:55.334Z,2.30
2022-12-23T16:45:12.690Z,2.85
2022-12-23T16:47:29.620Z,1.40
2022-12-23T16:49:46.853Z,1.67
2022-12-23T16:52:03.815Z,2.42
2022-12-23T16:54:21.147Z,1.00
2022-12-23T16:56:38.066Z,2.60
2022-12-23T16:58:55.334Z,1.33
2022-12-23T17:01:12.657Z,0.88
2022-12-23T17:03:29.998Z,2.45
2022-12-23T17:05:47.034Z,1.45
2022-12-23T17:08:04.068Z,1.40
2022-12-23T17:10:20.998Z,1.45
2022-12-23T17:12:37.938Z,1.58
2022-12-23T17:14:55.170Z,1.23
2022-12-23T17:17:13.215Z,4.20
2022-12-23T17:19:30.227Z,2.95
2022-12-23T17:21:48.298Z,2.60
2022-12-23T17:24:05.280Z,4.88
2022-12-23T17:26:23.361Z,2.67
2022-12-23T17:28:40.393Z,3.30
2022-12-23T17:30:57.665Z,2.67
2022-12-23T17:33:15.678Z,3.20
2022-12-23T17:35:32.576Z,2.65
2022-12-23T17:37:49.552Z,3.38
2022-12-23T17:40:06.501Z,1.73
2022-12-23T17:42:26.089Z,7.15
2022-12-23T17:44:43.629Z,3.38
2022-12-23T17:47:00.676Z,3.95
2022-12-23T17:49:18.022Z,4.32
2022-12-23T17:51:34.927Z,2.20
2022-12-23T17:53:57.305Z,5.82
2022-12-23T17:56:15.128Z,4.32
2022-12-23T17:58:32.412Z,4.75
2022-12-23T18:00:49.410Z,4.03
2022-12-23T18:03:06.455Z,4.40
2022-12-23T18:05:23.703Z,3.45
2022-12-23T18:07:40.711Z,4.57
2022-12-23T18:09:57.604Z,4.10
2022-12-23T18:12:16.905Z,6.03
2022-12-23T18:14:35.908Z,4.00
2022-12-23T18:16:53.269Z,5.15
2022-12-23T18:19:10.349Z,4.80
2022-12-23T18:21:27.332Z,2.67
2022-12-23T18:23:44.230Z,4.13
2022-12-23T18:26:01.178Z,6.18
2022-12-23T18:28:18.101Z,4.53
2022-12-23T18:30:35.068Z,5.55
2022-12-23T18:32:53.046Z,5.10
2022-12-23T18:35:10.128Z,4.15
2022-12-23T18:37:27.156Z,7.53
2022-12-23T18:39:44.238Z,7.00
2022-12-23T18:42:01.545Z,6.07
2022-12-23T18:44:18.875Z,7.25
2022-12-23T18:46:35.992Z,5.40
2022-12-23T18:48:53.330Z,6.20
2022-12-23T18:51:10.328Z,7.10
2022-12-23T18:53:27.316Z,7.63
2022-12-23T18:55:44.758Z,12.48
2022-12-23T18:58:02.071Z,10.85
2022-12-23T19:00:20.067Z,9.70
2022-12-23T19:02:37.130Z,7.85
2022-12-23T19:04:54.245Z,9.38
2022-12-23T19:07:11.300Z,7.00
2022-12-23T19:09:28.220Z,10.18
2022-12-23T19:11:45.173Z,9.02
2022-12-23T19:14:02.430Z,7.57
2022-12-23T19:16:20.588Z,10.43
2022-12-23T19:18:38.589Z,11.00
2022-12-23T19:20:55.535Z,9.45
2022-12-23T19:23:12.428Z,8.85
2022-12-23T19:25:29.499Z,14.48
2022-12-23T19:27:46.408Z,14.05
2022-12-23T19:30:03.515Z,12.40
2022-12-23T19:32:20.788Z,13.15
2022-12-23T19:34:38.106Z,11.85
2022-12-23T19:36:55.408Z,16.85
2022-12-23T19:39:13.687Z,18.35
2022-12-23T19:41:30.760Z,11.38
2022-12-23T19:43:47.787Z,12.23
2022-12-23T19:46:05.063Z,11.23
2022-12-23T19:48:22.411Z,14.00
2022-12-23T19:50:39.650Z,14.73
2022-12-23T19:52:56.718Z,8.82
2022-12-23T19:55:14.019Z,11.60
2022-12-23T19:57:31.339Z,9.57
2022-12-23T19:59:48.301Z,15.95
2022-12-23T20:02:05.561Z,8.10
2022-12-23T20:04:22.493Z,13.13
2022-12-23T20:06:39.760Z,16.90
2022-12-23T20:09:00.693Z,13.75
2022-12-23T20:11:18.520Z,14.50
2022-12-23T20:13:35.591Z,12.75
2022-12-23T20:15:52.963Z,12.07
2022-12-23T20:18:10.182Z,9.38
2022-12-23T20:20:27.207Z,15.30
2022-12-23T20:22:44.260Z,15.25
2022-12-23T20:25:01.388Z,12.55
2022-12-23T20:27:24.207Z,15.18
2022-12-23T20:29:43.482Z,14.73
2022-12-23T20:32:00.566Z,12.07
2022-12-23T20:34:19.400Z,11.35
2022-12-23T20:36:37.349Z,13.75
2022-12-23T20:38:54.782Z,14.50
2022-12-23T20:41:11.759Z,15.88
2022-12-23T20:43:28.651Z,16.13
2022-12-23T20:45:45.745Z,13.27
2022-12-23T20:48:03.014Z,14.25
2022-12-23T20:50:21.266Z,14.70
2022-12-23T20:52:38.597Z,11.18
2022-12-23T20:54:57.000Z,11.95
2022-12-23T20:57:14.119Z,10.50
2022-12-23T20:59:31.125Z,12.55
2022-12-23T21:01:48.138Z,14.15
2022-12-23T21:04:05.138Z,10.38
2022-12-23T21:06:22.089Z,14.45
2022-12-23T21:08:39.186Z,14.48
2022-12-23T21:10:56.589Z,9.82
2022-12-23T21:13:13.951Z,12.95
2022-12-23T21:15:30.932Z,13.45
2022-12-23T21:17:48.254Z,18.35
2022-12-23T21:20:07.752Z,16.65
2022-12-23T21:22:25.160Z,19.45
2022-12-23T21:24:42.402Z,12.90
2022-12-23T21:26:59.636Z,11.40
2022-12-23T21:29:16.753Z,16.42
2022-12-23T21:31:33.923Z,16.20
2022-12-23T21:33:51.123Z,16.08
2022-12-23T21:36:08.113Z,12.18
2022-12-23T21:38:25.245Z,14.50
2022-12-23T21:40:42.500Z,21.58
2022-12-23T21:43:04.016Z,14.95
2022-12-23T21:45:25.244Z,15.52
2022-12-23T21:47:42.490Z,11.88
2022-12-23T21:49:59.790Z,16.90
2022-12-23T21:52:17.898Z,15.38
2022-12-23T21:54:34.961Z,13.85
2022-12-23T21:56:51.935Z,13.95
2022-12-23T21:59:08.948Z,15.75
2022-12-23T22:01:26.060Z,19.95
2022-12-23T22:03:44.377Z,11.77
2022-12-23T22:06:03.349Z,18.27
2022-12-23T22:08:24.840Z,15.35
2022-12-23T22:10:41.903Z,15.98
2022-12-23T22:12:58.870Z,10.27
2022-12-23T22:15:15.984Z,11.98
2022-12-23T22:17:33.258Z,12.00
2022-12-23T22:19:51.228Z,16.40
2022-12-23T22:22:08.231Z,11.10
2022-12-23T22:24:25.203Z,11.55
2022-12-23T22:26:42.302Z,17.20
2022-12-23T22:29:00.313Z,13.75
2022-12-23T22:31:17.657Z,10.88
2022-12-23T22:33:35.034Z,16.67
2022-12-23T22:35:51.975Z,13.90
2022-12-23T22:38:08.933Z,13.23
2022-12-23T22:40:26.188Z,17.70
2022-12-23T22:42:43.571Z,14.50
2022-12-23T22:45:00.923Z,11.35
2022-12-23T22:47:18.058Z,14.65
2022-12-23T22:49:35.561Z,12.90
2022-12-23T22:51:52.569Z,15.63
2022-12-23T22:54:09.647Z,16.00
2022-12-23T22:56:26.752Z,15.13
2022-12-23T22:58:43.822Z,15.07
2022-12-23T23:01:00.808Z,14.50
2022-12-23T23:03:18.855Z,15.52
2022-12-23T23:05:36.233Z,15.43
2022-12-23T23:07:53.338Z,10.48
2022-12-23T23:10:10.615Z,12.95
2022-12-23T23:12:28.642Z,15.05
2022-12-23T23:14:45.971Z,19.35
2022-12-23T23:17:03.442Z,16.25
2022-12-23T23:19:20.685Z,11.23
2022-12-23T23:21:37.963Z,14.77
2022-12-23T23:23:55.335Z,11.80
2022-12-23T23:26:12.508Z,13.43
2022-12-23T23:28:29.679Z,15.82
2022-12-23T23:30:46.998Z,11.63
2022-12-23T23:33:04.248Z,17.05
2022-12-23T23:35:21.147Z,12.77
2022-12-23T23:37:38.270Z,13.85
2022-12-23T23:39:55.648Z,11.93
2022-12-23T23:42:12.663Z,13.95
2022-12-23T23:44:30.556Z,15.10
2022-12-23T23:46:50.449Z,14.48
2022-12-23T23:49:07.766Z,15.70
2022-12-23T23:51:24.844Z,10.77
2022-12-23T23:53:42.202Z,11.13
2022-12-23T23:55:59.235Z,13.52
2022-12-23T23:58:16.234Z,15.98
